createdAt,value
2023-04-10T00:02:00.943Z,98451.19
2023-04-10T00:04:28.527Z,98444.56
2023-04-10T00:06:55.560Z,98444.59
2023-04-10T00:09:22.230Z,98448.03
2023-04-10T00:11:48.911Z,98440.13
2023-04-10T00:14:15.660Z,98438.19
2023-04-10T00:16:42.475Z,98443.88
2023-04-10T00:19:09.225Z,98437.94
2023-04-10T00:21:35.899Z,98434.97
2023-04-10T00:24:02.469Z,98448.06
2023-04-10T00:26:29.309Z,98439.00
2023-04-10T00:28:56.280Z,98435.06
2023-04-10T00:31:23.112Z,98445.66
2023-04-10T00:33:49.788Z,98436.28
2023-04-10T00:36:18.371Z,98439.75
2023-04-10T00:38:45.540Z,98431.41
2023-04-10T00:41:12.175Z,98429.19
2023-04-10T00:43:38.862Z,98432.88
2023-04-10T00:46:07.225Z,98430.69
2023-04-10T00:48:34.924Z,98431.66
2023-04-10T00:51:01.740Z,98430.66
2023-04-10T00:53:29.549Z,98433.66
2023-04-10T00:55:57.266Z,98432.16
2023-04-10T00:58:23.880Z,98431.66
2023-04-10T01:00:51.438Z,98429.19
2023-04-10T01:03:20.631Z,98421.56
2023-04-10T01:06:24.117Z,98430.44
2023-04-10T01:09:35.435Z,98425.53
2023-04-10T01:12:16.358Z,98433.41
2023-04-10T01:15:02.138Z,98430.97
2023-04-10T01:17:52.508Z,98429.47
2023-04-10T01:20:24.072Z,98427.25
2023-04-10T01:23:27.987Z,98426.28
2023-04-10T01:26:03.811Z,98427.03
2023-04-10T01:28:56.170Z,98422.81
2023-04-10T01:31:45.987Z,98428.97
2023-04-10T01:34:20.546Z,98423.34
2023-04-10T01:36:55.418Z,98415.47
2023-04-10T01:39:23.956Z,98416.19
2023-04-10T01:41:52.860Z,98421.59
2023-04-10T01:44:27.468Z,98422.09
2023-04-10T01:46:56.770Z,98427.00
2023-04-10T01:49:26.538Z,98414.72
2023-04-10T01:51:58.249Z,98413.72
2023-04-10T01:54:27.862Z,98414.97
2023-04-10T01:56:54.911Z,98418.41
2023-04-10T01:59:22.131Z,98411.28
2023-04-10T02:01:48.846Z,98407.31
2023-04-10T02:04:15.639Z,98409.53
2023-04-10T02:06:56.183Z,98408.78
2023-04-10T02:09:43.422Z,98412.72
2023-04-10T02:12:17.104Z,98413.94
2023-04-10T02:14:46.609Z,98409.75
2023-04-10T02:17:16.096Z,98412.44
2023-04-10T02:19:45.384Z,98413.91
2023-04-10T02:22:12.770Z,98412.44
2023-04-10T02:24:39.399Z,98408.50
2023-04-10T02:27:06.120Z,98402.59
2023-04-10T02:29:32.778Z,98403.81
2023-04-10T02:31:59.733Z,98403.81
2023-04-10T02:34:26.383Z,98411.16
2023-04-10T02:36:53.058Z,98406.50
2023-04-10T02:39:19.688Z,98410.63
2023-04-10T02:41:46.599Z,98406.97
2023-04-10T02:44:13.823Z,98407.97
2023-04-10T02:46:41.311Z,98409.44
2023-04-10T02:49:07.981Z,98404.50
2023-04-10T02:51:36.317Z,98409.63
2023-04-10T02:54:03.191Z,98410.59
2023-04-10T02:56:29.819Z,98403.25
2023-04-10T02:58:58.524Z,98407.94
2023-04-10T03:01:25.743Z,98411.59
2023-04-10T03:03:58.780Z,98410.59
2023-04-10T03:06:28.843Z,98410.81
2023-04-10T03:08:56.194Z,98410.56
2023-04-10T03:11:22.950Z,98406.28
2023-04-10T03:13:50.364Z,98401.13
2023-04-10T03:16:19.822Z,98404.72
2023-04-10T03:18:46.941Z,98406.44
2023-04-10T03:21:13.568Z,98404.44
2023-04-10T03:23:40.369Z,98401.53
2023-04-10T03:26:09.458Z,98401.78
2023-04-10T03:28:36.728Z,98406.47
2023-04-10T03:31:04.404Z,98402.03
2023-04-10T03:33:31.114Z,98407.44
2023-04-10T03:35:58.203Z,98399.53
2023-04-10T03:38:24.852Z,98400.97
2023-04-10T03:40:51.472Z,98404.41
2023-04-10T03:43:18.100Z,98402.19
2023-04-10T03:45:44.746Z,98399.50
2023-04-10T03:48:12.003Z,98398.59
2023-04-10T03:50:38.690Z,98404.47
2023-04-10T03:53:05.320Z,98402.03
2023-04-10T03:55:32.228Z,98403.97
2023-04-10T03:57:58.882Z,98397.81
2023-04-10T04:00:27.234Z,98398.38
2023-04-10T04:02:54.218Z,98401.81
2023-04-10T04:05:21.142Z,98410.13
2023-04-10T04:07:48.082Z,98410.63
2023-04-10T04:10:14.704Z,98411.13
2023-04-10T04:12:41.338Z,98414.31
2023-04-10T04:15:08.717Z,98417.69
2023-04-10T04:17:35.743Z,98416.97
2023-04-10T04:20:02.511Z,98424.09
2023-04-10T04:22:29.164Z,98427.53
2023-04-10T04:24:55.804Z,98426.06
2023-04-10T04:27:23.239Z,98426.00
2023-04-10T04:29:49.874Z,98433.56
2023-04-10T04:32:16.757Z,98437.22
2023-04-10T04:34:43.400Z,98436.28
2023-04-10T04:37:09.990Z,98436.50
2023-04-10T04:39:36.613Z,98436.25
2023-04-10T04:42:03.363Z,98440.72
2023-04-10T04:44:29.948Z,98441.47
2023-04-10T04:46:56.600Z,98449.78
2023-04-10T04:49:23.224Z,98446.84
2023-04-10T04:51:49.861Z,98446.13
2023-04-10T04:54:16.500Z,98446.72
2023-04-10T04:56:43.147Z,98454.78
2023-04-10T04:59:09.771Z,98454.06
2023-04-10T05:01:51.772Z,98453.16
2023-04-10T05:04:38.800Z,98458.06
2023-04-10T05:07:25.872Z,98464.91
2023-04-10T05:10:12.795Z,98464.34
2023-04-10T05:12:59.706Z,98468.34
2023-04-10T05:15:46.656Z,98470.47
2023-04-10T05:18:35.529Z,98469.97
2023-04-10T05:21:22.981Z,98463.63
2023-04-10T05:24:09.964Z,98467.84
2023-04-10T05:26:57.783Z,98476.44
2023-04-10T05:29:44.679Z,98467.22
2023-04-10T05:32:31.573Z,98464.81
2023-04-10T05:35:18.483Z,98465.59
2023-04-10T05:38:05.457Z,98461.97
2023-04-10T05:40:52.392Z,98463.50
2023-04-10T05:43:39.272Z,98464.28
2023-04-10T05:46:26.259Z,98460.63
2023-04-10T05:49:13.258Z,98466.28
2023-04-10T05:52:00.268Z,98475.41
2023-04-10T05:54:47.388Z,98471.72
2023-04-10T05:57:34.319Z,98469.03
2023-04-10T06:00:21.510Z,98470.72
2023-04-10T06:03:08.604Z,98471.69
2023-04-10T06:05:55.562Z,98473.66
2023-04-10T06:08:42.551Z,98472.44
2023-04-10T06:11:29.450Z,98482.28
2023-04-10T06:14:18.010Z,98472.22
2023-04-10T06:17:04.916Z,98475.94
2023-04-10T06:19:51.904Z,98482.56
2023-04-10T06:22:38.918Z,98483.06
2023-04-10T06:25:26.722Z,98476.66
2023-04-10T06:28:13.950Z,98481.34
2023-04-10T06:31:03.618Z,98477.63
2023-04-10T06:33:51.072Z,98478.84
2023-04-10T06:36:38.033Z,98481.34
2023-04-10T06:39:25.327Z,98478.88
2023-04-10T06:42:12.252Z,98481.06
2023-04-10T06:44:59.110Z,98488.19
2023-04-10T06:47:46.040Z,98486.63
2023-04-10T06:50:33.506Z,98497.19
2023-04-10T06:53:20.567Z,98496.41
2023-04-10T06:56:08.196Z,98485.31
2023-04-10T06:58:55.324Z,98495.47
2023-04-10T07:01:42.346Z,98506.63
2023-04-10T07:04:29.419Z,98491.53
2023-04-10T07:07:16.470Z,98495.31
2023-04-10T07:10:03.542Z,98503.47
2023-04-10T07:12:50.781Z,98508.13
2023-04-10T07:15:38.001Z,98509.38
2023-04-10T07:18:24.950Z,98509.59
2023-04-10T07:21:14.459Z,98505.81
2023-04-10T07:24:01.579Z,98505.22
2023-04-10T07:26:48.526Z,98500.00
2023-04-10T07:29:35.405Z,98501.38
2023-04-10T07:32:23.342Z,98505.47
2023-04-10T07:35:10.458Z,98499.13
2023-04-10T07:37:57.328Z,98506.66
2023-04-10T07:40:44.168Z,98508.06
2023-04-10T07:43:31.546Z,98499.78
2023-04-10T07:46:18.526Z,98506.63
2023-04-10T07:49:07.394Z,98510.19
2023-04-10T07:51:55.812Z,98497.28
2023-04-10T07:54:42.719Z,98502.25
2023-04-10T07:57:29.795Z,98494.38
2023-04-10T08:00:16.935Z,98498.22
2023-04-10T08:03:05.345Z,98506.13
2023-04-10T08:05:52.402Z,98510.31
2023-04-10T08:08:40.884Z,98505.28
2023-04-10T08:11:34.156Z,98502.09
2023-04-10T08:14:22.152Z,98505.69
2023-04-10T08:17:14.537Z,98497.97
2023-04-10T08:20:01.551Z,98505.38
2023-04-10T08:22:48.438Z,98500.53
2023-04-10T08:25:35.356Z,98505.22
2023-04-10T08:28:22.466Z,98501.09
2023-04-10T08:31:09.458Z,98505.28
2023-04-10T08:33:57.272Z,98502.00
2023-04-10T08:36:44.709Z,98490.34
2023-04-10T08:39:31.713Z,98487.63
2023-04-10T08:42:19.010Z,98491.31
2023-04-10T08:45:06.752Z,98488.22
2023-04-10T08:47:58.029Z,98488.72
2023-04-10T08:50:46.203Z,98492.38
2023-04-10T08:53:41.252Z,98482.03
2023-04-10T08:56:36.629Z,98481.31
2023-04-10T08:59:23.651Z,98483.31
2023-04-10T09:02:10.697Z,98474.66
2023-04-10T09:05:00.534Z,98478.44
2023-04-10T09:07:47.431Z,98467.22
2023-04-10T09:10:34.319Z,98463.91
2023-04-10T09:13:41.263Z,98463.81
2023-04-10T09:16:30.886Z,98455.75
2023-04-10T09:19:31.236Z,98462.28
2023-04-10T09:22:19.426Z,98454.63
2023-04-10T09:25:07.264Z,98458.97
2023-04-10T09:28:01.276Z,98447.63
2023-04-10T09:30:48.217Z,98450.56
2023-04-10T09:33:35.618Z,98444.22
2023-04-10T09:36:22.592Z,98436.59
2023-04-10T09:39:11.491Z,98430.47
2023-04-10T09:41:58.780Z,98427.31
2023-04-10T09:44:45.633Z,98427.78
2023-04-10T09:47:33.192Z,98422.13
2023-04-10T09:50:37.837Z,98414.88
2023-04-10T09:53:26.502Z,98413.94
2023-04-10T09:56:14.335Z,98407.03
2023-04-10T09:59:01.909Z,98405.56
2023-04-10T10:01:49.041Z,98394.78
2023-04-10T10:04:36.861Z,98396.16
2023-04-10T10:07:24.477Z,98385.66
2023-04-10T10:10:12.278Z,98377.81
2023-04-10T10:13:03.437Z,98377.78
2023-04-10T10:15:59.288Z,98372.97
2023-04-10T10:19:28.601Z,98370.03
2023-04-10T10:22:16.029Z,98361.63
2023-04-10T10:25:03.994Z,98365.31
2023-04-10T10:27:54.104Z,98358.47
2023-04-10T10:30:42.246Z,98358.63
2023-04-10T10:33:30.035Z,98361.50
2023-04-10T10:36:19.128Z,98347.63
2023-04-10T10:39:42.450Z,98353.06
2023-04-10T10:43:27.794Z,98345.56
2023-04-10T10:46:29.303Z,98334.59
2023-04-10T10:49:16.249Z,98330.50
2023-04-10T10:52:03.285Z,98331.88
2023-04-10T10:54:58.867Z,98338.31
2023-04-10T10:57:47.730Z,98322.56
2023-04-10T11:01:10.753Z,98313.13
2023-04-10T11:03:58.090Z,98317.78
2023-04-10T11:06:52.183Z,98317.53
2023-04-10T11:09:53.572Z,98304.75
2023-04-10T11:13:19.534Z,98305.38
2023-04-10T11:16:10.473Z,98293.53
2023-04-10T11:19:16.145Z,98296.34
2023-04-10T11:22:08.442Z,98297.47
2023-04-10T11:24:58.310Z,98289.16
2023-04-10T11:27:52.814Z,98289.72
2023-04-10T11:30:41.094Z,98290.72
2023-04-10T11:33:28.512Z,98282.34
2023-04-10T11:36:18.510Z,98275.66
2023-04-10T11:39:10.375Z,98275.34
2023-04-10T11:41:57.718Z,98267.72
2023-04-10T11:44:45.369Z,98268.09
2023-04-10T11:47:33.140Z,98258.44
2023-04-10T11:50:21.288Z,98250.47
2023-04-10T11:53:21.713Z,98246.84
2023-04-10T11:56:22.076Z,98232.63
2023-04-10T11:59:14.440Z,98237.00
2023-04-10T12:02:11.638Z,98227.38
2023-04-10T12:05:00.055Z,98220.84
2023-04-10T12:07:45.422Z,98220.84
2023-04-10T12:10:45.575Z,98218.50
2023-04-10T12:13:32.945Z,98221.94
2023-04-10T12:16:20.446Z,98214.13
2023-04-10T12:19:07.633Z,98211.41
2023-04-10T12:21:55.975Z,98205.00
2023-04-10T12:24:51.868Z,98195.72
2023-04-10T12:27:38.906Z,98196.41
2023-04-10T12:30:26.041Z,98187.31
2023-04-10T12:33:12.939Z,98176.38
2023-04-10T12:36:00.290Z,98179.47
2023-04-10T12:38:47.303Z,98175.44
2023-04-10T12:41:37.109Z,98176.34
2023-04-10T12:44:23.987Z,98173.38
2023-04-10T12:47:11.056Z,98185.25
2023-04-10T12:50:11.577Z,98173.41
2023-04-10T12:53:07.616Z,98168.66
2023-04-10T12:56:06.497Z,98164.25
2023-04-10T12:59:07.582Z,98152.53
2023-04-10T13:01:54.985Z,98147.59
2023-04-10T13:04:42.086Z,98145.56
2023-04-10T13:07:29.077Z,98149.63
2023-04-10T13:10:16.357Z,98148.00
2023-04-10T13:13:03.256Z,98142.66
2023-04-10T13:15:50.222Z,98138.28
2023-04-10T13:18:37.111Z,98130.06
2023-04-10T13:21:26.174Z,98129.91
2023-04-10T13:24:15.314Z,98120.66
2023-04-10T13:27:03.630Z,98122.66
2023-04-10T13:29:50.624Z,98122.50
2023-04-10T13:32:37.649Z,98114.22
2023-04-10T13:35:24.667Z,98112.97
2023-04-10T13:38:11.889Z,98105.63
2023-04-10T13:40:58.814Z,98109.50
2023-04-10T13:43:45.726Z,98096.22
2023-04-10T13:46:32.709Z,98089.09
2023-04-10T13:49:20.388Z,98086.84
2023-04-10T13:52:07.488Z,98079.72
2023-04-10T13:54:54.471Z,98069.66
2023-04-10T13:57:42.025Z,98070.41
2023-04-10T14:00:30.139Z,98064.72
2023-04-10T14:03:17.156Z,98068.63
2023-04-10T14:06:04.405Z,98066.41
2023-04-10T14:08:51.394Z,98055.06
2023-04-10T14:11:38.363Z,98049.69
2023-04-10T14:14:25.289Z,98040.41
2023-04-10T14:17:12.327Z,98033.13
2023-04-10T14:19:59.254Z,98027.44
2023-04-10T14:22:47.489Z,98030.91
2023-04-10T14:25:34.471Z,98031.22
2023-04-10T14:28:21.467Z,98022.59
2023-04-10T14:31:08.460Z,98019.47
2023-04-10T14:33:55.803Z,98014.72
2023-04-10T14:36:42.891Z,98011.78
2023-04-10T14:39:30.485Z,98010.91
2023-04-10T14:42:17.368Z,97999.44
2023-04-10T14:45:06.181Z,97997.59
2023-04-10T14:47:53.793Z,97994.88
2023-04-10T14:50:40.880Z,97991.09
2023-04-10T14:53:27.757Z,97990.19
2023-04-10T14:56:15.710Z,97993.47
2023-04-10T14:59:02.643Z,97993.31
2023-04-10T15:01:49.707Z,97995.41
2023-04-10T15:04:36.726Z,97978.59
2023-04-10T15:07:28.260Z,97977.13
2023-04-10T15:10:15.354Z,97970.75
2023-04-10T15:13:02.236Z,97973.00
2023-04-10T15:15:49.439Z,97970.34
2023-04-10T15:18:36.281Z,97970.00
2023-04-10T15:21:23.265Z,97966.38
2023-04-10T15:24:10.200Z,97967.16
2023-04-10T15:26:57.711Z,97970.09
2023-04-10T15:29:44.604Z,97969.38
2023-04-10T15:32:31.480Z,97966.47
2023-04-10T15:35:18.893Z,97967.03
2023-04-10T15:38:06.621Z,97963.63
2023-04-10T15:40:57.050Z,97957.63
2023-04-10T15:43:43.912Z,97965.69
2023-04-10T15:46:32.825Z,97959.88
2023-04-10T15:49:29.792Z,97954.94
2023-04-10T15:52:21.260Z,97966.13
2023-04-10T15:55:08.252Z,97955.94
2023-04-10T15:57:55.207Z,97948.31
2023-04-10T16:00:42.087Z,97941.06
2023-04-10T16:03:30.437Z,97947.69
2023-04-10T16:06:17.661Z,97947.28
2023-04-10T16:09:12.423Z,97937.28
2023-04-10T16:12:09.293Z,97935.31
2023-04-10T16:14:56.964Z,97938.97
2023-04-10T16:17:43.901Z,97930.97
2023-04-10T16:20:31.977Z,97931.19
2023-04-10T16:23:18.852Z,97924.66
2023-04-10T16:26:05.956Z,97923.41
2023-04-10T16:28:53.147Z,97917.59
2023-04-10T16:31:40.437Z,97917.22
2023-04-10T16:34:27.350Z,97919.41
2023-04-10T16:37:14.304Z,97912.88
2023-04-10T16:40:02.020Z,97906.31
2023-04-10T16:42:48.951Z,97901.06
2023-04-10T16:45:35.838Z,97904.84
2023-04-10T16:48:22.938Z,97899.19
2023-04-10T16:51:16.169Z,97892.84
2023-04-10T16:54:03.769Z,97887.03
2023-04-10T16:56:50.774Z,97882.84
2023-04-10T16:59:37.644Z,97877.22
2023-04-10T17:02:25.646Z,97869.19
2023-04-10T17:05:13.744Z,97873.59
2023-04-10T17:08:00.652Z,97875.22
2023-04-10T17:10:47.602Z,97869.22
2023-04-10T17:13:36.888Z,97861.59
2023-04-10T17:16:23.837Z,97867.44
2023-04-10T17:19:10.750Z,97862.00
2023-04-10T17:21:58.279Z,97858.16
2023-04-10T17:24:46.144Z,97860.38
2023-04-10T17:27:33.092Z,97857.47
2023-04-10T17:30:19.973Z,97856.91
2023-04-10T17:33:06.922Z,97844.00
2023-04-10T17:35:55.426Z,97855.84
2023-04-10T17:38:42.622Z,97849.66
2023-04-10T17:41:29.545Z,97846.56
2023-04-10T17:44:16.503Z,97851.47
2023-04-10T17:47:03.403Z,97857.84
2023-04-10T17:49:50.303Z,97846.38
2023-04-10T17:52:37.424Z,97846.56
2023-04-10T17:55:24.654Z,97855.09
2023-04-10T17:58:11.895Z,97856.75
2023-04-10T18:00:58.802Z,97860.56
2023-04-10T18:03:46.031Z,97860.00
2023-04-10T18:06:33.209Z,97860.34
2023-04-10T18:09:20.153Z,97857.97
2023-04-10T18:12:07.167Z,97855.81
2023-04-10T18:14:54.158Z,97851.44
2023-04-10T18:17:41.348Z,97859.09
2023-04-10T18:20:28.254Z,97846.69
2023-04-10T18:23:15.169Z,97849.97
2023-04-10T18:26:03.640Z,97844.88
2023-04-10T18:28:50.558Z,97853.75
2023-04-10T18:31:37.382Z,97856.84
2023-04-10T18:34:24.313Z,97854.59
2023-04-10T18:37:11.176Z,97848.38
2023-04-10T18:40:00.959Z,97845.09
2023-04-10T18:42:50.610Z,97848.50
2023-04-10T18:45:37.525Z,97847.97
2023-04-10T18:48:24.445Z,97852.84
2023-04-10T18:51:11.694Z,97856.31
2023-04-10T18:53:58.978Z,97841.38
2023-04-10T18:56:45.832Z,97848.66
2023-04-10T18:59:32.735Z,97846.41
2023-04-10T19:02:20.440Z,97851.84
2023-04-10T19:05:08.503Z,97844.38
2023-04-10T19:08:03.748Z,97847.63
2023-04-10T19:10:51.721Z,97845.56
2023-04-10T19:13:38.631Z,97841.72
2023-04-10T19:16:25.762Z,97841.72
2023-04-10T19:19:12.753Z,97841.53
2023-04-10T19:22:00.669Z,97841.50
2023-04-10T19:24:47.521Z,97842.16
2023-04-10T19:27:34.407Z,97842.84
2023-04-10T19:30:21.478Z,97846.41
2023-04-10T19:33:08.373Z,97848.38
2023-04-10T19:35:55.364Z,97839.28
2023-04-10T19:38:44.477Z,97836.16
2023-04-10T19:41:31.335Z,97833.38
2023-04-10T19:44:18.243Z,97829.53
2023-04-10T19:47:05.258Z,97819.53
2023-04-10T19:49:52.114Z,97820.06
2023-04-10T19:52:39.079Z,97822.78
2023-04-10T19:55:26.246Z,97814.03
2023-04-10T19:58:29.917Z,97817.22
2023-04-10T20:01:20.091Z,97814.88
2023-04-10T20:04:07.016Z,97805.59
2023-04-10T20:06:53.952Z,97806.66
2023-04-10T20:09:40.969Z,97811.09
2023-04-10T20:12:28.838Z,97801.09
2023-04-10T20:15:15.761Z,97805.41
2023-04-10T20:18:02.671Z,97792.56
2023-04-10T20:20:49.656Z,97783.50
2023-04-10T20:23:37.576Z,97784.56
2023-04-10T20:26:25.927Z,97789.25
2023-04-10T20:29:12.788Z,97780.50
2023-04-10T20:31:59.827Z,97777.56
2023-04-10T20:34:47.062Z,97781.56
2023-04-10T20:37:33.964Z,97776.13
2023-04-10T20:40:20.999Z,97774.47
2023-04-10T20:43:11.864Z,97766.00
2023-04-10T20:46:10.658Z,97768.22
2023-04-10T20:48:59.305Z,97762.16
2023-04-10T20:51:47.188Z,97762.34
2023-04-10T20:54:34.201Z,97755.84
2023-04-10T20:57:21.208Z,97747.94
2023-04-10T21:00:09.217Z,97750.25
2023-04-10T21:02:56.277Z,97748.19
2023-04-10T21:05:43.374Z,97743.63
2023-04-10T21:08:30.512Z,97746.63
2023-04-10T21:11:19.737Z,97742.03
2023-04-10T21:14:06.760Z,97737.25
2023-04-10T21:16:53.888Z,97735.88
2023-04-10T21:19:40.981Z,97738.72
2023-04-10T21:22:29.330Z,97733.41
2023-04-10T21:25:16.645Z,97726.75
2023-04-10T21:28:03.614Z,97726.53
2023-04-10T21:30:50.550Z,97725.06
2023-04-10T21:33:37.601Z,97725.72
2023-04-10T21:36:24.619Z,97727.06
2023-04-10T21:39:11.604Z,97716.22
2023-04-10T21:41:58.527Z,97728.81
2023-04-10T21:44:45.485Z,97728.59
2023-04-10T21:47:32.381Z,97724.25
2023-04-10T21:50:19.320Z,97724.03
2023-04-10T21:53:06.262Z,97727.59
2023-04-10T21:55:53.210Z,97730.41
2023-04-10T21:58:40.279Z,97720.91
2023-04-10T22:01:27.268Z,97725.59
2023-04-10T22:04:14.309Z,97726.22
2023-04-10T22:07:02.665Z,97721.94
2023-04-10T22:09:50.684Z,97720.38
2023-04-10T22:12:37.741Z,97724.25
2023-04-10T22:15:24.687Z,97711.75
2023-04-10T22:18:11.609Z,97707.03
2023-04-10T22:20:58.531Z,97701.63
2023-04-10T22:23:45.610Z,97707.56
2023-04-10T22:26:34.173Z,97699.94
2023-04-10T22:29:21.773Z,97701.22
2023-04-10T22:32:09.366Z,97689.84
2023-04-10T22:34:56.315Z,97688.38
2023-04-10T22:37:44.344Z,97683.78
2023-04-10T22:40:31.644Z,97677.03
2023-04-10T22:43:18.613Z,97679.72
2023-04-10T22:46:05.652Z,97683.66
2023-04-10T22:48:54.249Z,97684.09
2023-04-10T22:51:42.087Z,97687.00
2023-04-10T22:54:29.628Z,97691.69
2023-04-10T22:57:16.599Z,97683.16
2023-04-10T23:00:04.322Z,97685.44
2023-04-10T23:02:51.401Z,97687.09
2023-04-10T23:05:38.408Z,97675.41
2023-04-10T23:08:25.352Z,97670.53
2023-04-10T23:11:12.327Z,97666.75
2023-04-10T23:13:59.321Z,97666.06
2023-04-10T23:16:46.377Z,97663.66
2023-04-10T23:19:33.264Z,97660.09
2023-04-10T23:22:20.161Z,97661.25
2023-04-10T23:25:07.427Z,97659.19
2023-04-10T23:27:54.351Z,97651.47
2023-04-10T23:30:42.597Z,97654.38
2023-04-10T23:33:29.541Z,97650.50
2023-04-10T23:36:16.597Z,97647.91
2023-04-10T23:39:03.601Z,97638.44
2023-04-10T23:41:50.627Z,97633.09
2023-04-10T23:44:37.546Z,97628.72
2023-04-10T23:47:24.667Z,97622.50
2023-04-10T23:50:11.612Z,97620.69
2023-04-10T23:53:00.026Z,97622.19
2023-04-10T23:55:46.909Z,97614.16
2023-04-10T23:58:33.868Z,97610.81
